Wetterdaten: Woche 30.03.15 - 05.04.15 (KW14)
Datum Zeit Temperatur Luftfeuchte Luftdruck Niederschlag Windrichtung Sonnenschein Solar Wind
30.03.2015 00:00 8,0 C 94 % 1002,7 hPa 1,0 l/m W-SW 0,00 h 0 W/m 36,5 km/h (5 Bft)
30.03.2015 01:00 8,0 C 95 % 1002,3 hPa 1,8 l/m W-SW 0,00 h 0 W/m 33,7 km/h (5 Bft)
30.03.2015 02:00 7,9 C 96 % 1001,6 hPa 1,6 l/m W-SW 0,00 h 0 W/m 29,1 km/h (5 Bft)
30.03.2015 03:00 7,9 C 95 % 1001,1 hPa 0,8 l/m W-SW 0,00 h 0 W/m 29,1 km/h (5 Bft)
30.03.2015 04:00 7,8 C 96 % 1000,4 hPa 0,8 l/m W-SW 0,00 h 0 W/m 28,8 km/h (5 Bft)
30.03.2015 05:00 7,8 C 96 % 1000,3 hPa 2,6 l/m W-SW 0,00 h 0 W/m 26,1 km/h (4 Bft)
30.03.2015 06:00 7,9 C 96 % 1000,3 hPa 0,6 l/m W-SW 0,00 h 0 W/m 26,3 km/h (4 Bft)
30.03.2015 07:00 7,6 C 95 % 1000,9 hPa 4,0 l/m W-NW 0,00 h 11 W/m 27,1 km/h (4 Bft)
30.03.2015 08:00 6,2 C 95 % 1001,8 hPa 1,6 l/m W-NW 0,00 h 18 W/m 20,9 km/h (4 Bft)
30.03.2015 09:00 6,5 C 96 % 1002,4 hPa 1,0 l/m W 0,00 h 42 W/m 22,4 km/h (4 Bft)
30.03.2015 10:00 7,4 C 95 % 1003,1 hPa 0,0 l/m W 0,08 h 194 W/m 28,3 km/h (4 Bft)
30.03.2015 11:00 7,4 C 91 % 1004,0 hPa 0,2 l/m NW 0,00 h 52 W/m 24,1 km/h (4 Bft)
30.03.2015 12:00 6,3 C 93 % 1005,2 hPa 0,2 l/m W-NW 0,00 h 80 W/m 25,3 km/h (4 Bft)
30.03.2015 13:00 7,0 C 89 % 1006,1 hPa 0,2 l/m W-NW 0,17 h 242 W/m 27,9 km/h (4 Bft)
30.03.2015 14:00 8,9 C 76 % 1006,7 hPa 0,0 l/m W-NW 0,50 h 414 W/m 34,3 km/h (5 Bft)
30.03.2015 15:00 7,7 C 80 % 1008,1 hPa 0,2 l/m N-NW 0,00 h 135 W/m 30,3 km/h (5 Bft)
30.03.2015 16:00 7,4 C 82 % 1008,9 hPa 0,0 l/m W-NW 0,17 h 207 W/m 26,7 km/h (4 Bft)
30.03.2015 17:00 8,6 C 72 % 1009,0 hPa 0,0 l/m W-NW 0,50 h 208 W/m 31,0 km/h (5 Bft)
30.03.2015 18:00 8,3 C 69 % 1009,9 hPa 0,0 l/m W-NW 0,00 h 71 W/m 23,7 km/h (4 Bft)
30.03.2015 19:00 7,7 C 68 % 1010,9 hPa 0,0 l/m W-NW 0,00 h 25 W/m 19,4 km/h (3 Bft)
30.03.2015 20:00 7,2 C 68 % 1012,4 hPa 0,0 l/m W 0,00 h 0 W/m 14,8 km/h (3 Bft)
30.03.2015 21:00 6,6 C 71 % 1013,1 hPa 0,0 l/m W 0,00 h 0 W/m 8,8 km/h (2 Bft)
30.03.2015 22:00 5,8 C 75 % 1013,3 hPa 0,0 l/m W 0,00 h 0 W/m 7,0 km/h (2 Bft)
30.03.2015 23:00 5,8 C 75 % 1013,5 hPa 0,0 l/m W-SW 0,00 h 0 W/m 9,8 km/h (2 Bft)
31.03.2015 00:00 6,3 C 76 % 1012,3 hPa 0,0 l/m SW 0,00 h 0 W/m 13,0 km/h (3 Bft)
31.03.2015 01:00 6,7 C 79 % 1010,8 hPa 0,0 l/m SW 0,00 h 0 W/m 22,1 km/h (4 Bft)
31.03.2015 02:00 7,0 C 83 % 1010,0 hPa 0,0 l/m W-SW 0,00 h 0 W/m 27,6 km/h (4 Bft)
31.03.2015 03:00 7,2 C 88 % 1008,8 hPa 0,0 l/m SW 0,00 h 0 W/m 28,8 km/h (5 Bft)
31.03.2015 04:00 7,8 C 92 % 1006,7 hPa 0,0 l/m W-SW 0,00 h 0 W/m 39,6 km/h (6 Bft)
31.03.2015 05:00 8,8 C 91 % 1005,5 hPa 0,0 l/m W-SW 0,00 h 0 W/m 39,8 km/h (6 Bft)
31.03.2015 06:00 9,6 C 91 % 1004,8 hPa 0,0 l/m W-SW 0,00 h 0 W/m 38,3 km/h (5 Bft)
31.03.2015 07:00 10,6 C 87 % 1004,9 hPa 0,0 l/m W-SW 0,00 h 11 W/m 42,2 km/h (6 Bft)
31.03.2015 08:00 11,6 C 77 % 1004,2 hPa 0,0 l/m W 0,00 h 20 W/m 50,4 km/h (7 Bft)
31.03.2015 09:00 11,9 C 72 % 1003,4 hPa 0,0 l/m W-SW 0,00 h 52 W/m 54,9 km/h (7 Bft)
31.03.2015 10:00 12,2 C 69 % 1003,9 hPa 0,0 l/m W 0,00 h 60 W/m 50,6 km/h (7 Bft)
31.03.2015 11:00 12,6 C 68 % 1004,2 hPa 0,0 l/m W-SW 0,00 h 161 W/m 59,7 km/h (7 Bft)
31.03.2015 12:00 12,4 C 73 % 1004,5 hPa 0,0 l/m W 0,17 h 294 W/m 55,8 km/h (7 Bft)
31.03.2015 13:00 12,5 C 67 % 1004,5 hPa 0,0 l/m W 0,00 h 224 W/m 59,4 km/h (7 Bft)
31.03.2015 14:00 11,9 C 71 % 1004,7 hPa 0,0 l/m W 0,08 h 209 W/m 57,9 km/h (7 Bft)
31.03.2015 15:00 10,8 C 76 % 1005,3 hPa 0,6 l/m W 0,00 h 72 W/m 49,6 km/h (6 Bft)
31.03.2015 16:00 9,6 C 80 % 1006,2 hPa 0,4 l/m W-NW 0,00 h 63 W/m 40,0 km/h (6 Bft)
31.03.2015 17:00 8,3 C 85 % 1006,9 hPa 0,8 l/m W 0,00 h 58 W/m 33,9 km/h (5 Bft)
31.03.2015 18:00 8,0 C 83 % 1008,4 hPa 0,4 l/m W 0,67 h 159 W/m 38,2 km/h (5 Bft)
31.03.2015 19:00 8,2 C 70 % 1009,7 hPa 0,0 l/m W-NW 0,08 h 22 W/m 42,8 km/h (6 Bft)
31.03.2015 20:00 7,5 C 73 % 1011,0 hPa 0,0 l/m W-NW 0,00 h 0 W/m 30,4 km/h (5 Bft)
31.03.2015 21:00 5,3 C 83 % 1011,8 hPa 0,4 l/m W 0,00 h 0 W/m 29,1 km/h (5 Bft)
31.03.2015 22:00 5,0 C 85 % 1011,8 hPa 0,0 l/m W-SW 0,00 h 0 W/m 18,6 km/h (3 Bft)
31.03.2015 23:00 5,1 C 81 % 1012,2 hPa 0,0 l/m W-SW 0,00 h 0 W/m 21,6 km/h (4 Bft)
01.04.2015 00:00 5,5 C 73 % 1012,4 hPa 0,0 l/m W-SW 0,00 h 0 W/m 27,8 km/h (4 Bft)
01.04.2015 01:00 5,8 C 66 % 1013,1 hPa 0,0 l/m W 0,00 h 0 W/m 34,3 km/h (5 Bft)
01.04.2015 02:00 5,6 C 60 % 1013,3 hPa 0,0 l/m W 0,00 h 0 W/m 36,1 km/h (5 Bft)
01.04.2015 03:00 5,3 C 58 % 1013,3 hPa 0,0 l/m W 0,00 h 0 W/m 34,6 km/h (5 Bft)
01.04.2015 04:00 4,9 C 62 % 1014,1 hPa 0,0 l/m W-NW 0,00 h 0 W/m 33,8 km/h (5 Bft)
01.04.2015 05:00 2,1 C 84 % 1014,7 hPa 0,0 l/m N-NW 0,00 h 0 W/m 17,2 km/h (3 Bft)
01.04.2015 06:00 1,3 C 90 % 1015,5 hPa 0,0 l/m W-NW 0,00 h 0 W/m 20,9 km/h (4 Bft)
01.04.2015 07:00 0,7 C 92 % 1016,3 hPa 0,0 l/m W-NW 0,00 h 15 W/m 22,8 km/h (4 Bft)
01.04.2015 08:00 0,9 C 93 % 1016,9 hPa 0,0 l/m W 0,33 h 110 W/m 18,9 km/h (3 Bft)
01.04.2015 09:00 1,9 C 90 % 1018,0 hPa 0,6 l/m W-NW 0,17 h 158 W/m 22,4 km/h (4 Bft)
01.04.2015 10:00 3,2 C 80 % 1019,1 hPa 0,8 l/m W-NW 0,33 h 240 W/m 26,1 km/h (4 Bft)
01.04.2015 11:00 3,6 C 71 % 1019,7 hPa 0,0 l/m W-NW 0,00 h 229 W/m 28,8 km/h (5 Bft)
01.04.2015 12:00 4,5 C 71 % 1019,9 hPa 0,0 l/m W-NW 0,42 h 404 W/m 32,9 km/h (5 Bft)
01.04.2015 13:00 5,5 C 67 % 1019,8 hPa 0,2 l/m W-NW 0,83 h 792 W/m 32,7 km/h (5 Bft)
01.04.2015 14:00 6,5 C 61 % 1019,7 hPa 0,0 l/m W-NW 0,92 h 741 W/m 36,4 km/h (5 Bft)
01.04.2015 15:00 5,4 C 66 % 1019,8 hPa 0,0 l/m W-NW 0,17 h 188 W/m 35,0 km/h (5 Bft)
01.04.2015 16:00 5,7 C 62 % 1019,8 hPa 0,0 l/m W-NW 0,92 h 532 W/m 38,4 km/h (5 Bft)
01.04.2015 17:00 5,7 C 56 % 1020,2 hPa 0,0 l/m W-NW 0,08 h 85 W/m 30,0 km/h (5 Bft)
01.04.2015 18:00 4,8 C 63 % 1020,8 hPa 0,0 l/m W 0,50 h 149 W/m 32,2 km/h (5 Bft)
01.04.2015 19:00 3,6 C 74 % 1021,6 hPa 0,0 l/m W 0,25 h 23 W/m 25,1 km/h (4 Bft)
01.04.2015 20:00 2,6 C 79 % 1022,4 hPa 0,0 l/m W 0,00 h 0 W/m 19,3 km/h (3 Bft)
01.04.2015 21:00 3,0 C 74 % 1023,0 hPa 0,0 l/m W-SW 0,00 h 0 W/m 24,3 km/h (4 Bft)
01.04.2015 22:00 2,8 C 74 % 1023,2 hPa 0,0 l/m W-SW 0,00 h 0 W/m 17,4 km/h (3 Bft)
01.04.2015 23:00 2,9 C 74 % 1022,9 hPa 0,0 l/m W-SW 0,00 h 0 W/m 20,0 km/h (4 Bft)
02.04.2015 00:00 3,5 C 71 % 1022,3 hPa 0,0 l/m W-SW 0,00 h 0 W/m 25,2 km/h (4 Bft)
02.04.2015 01:00 3,7 C 70 % 1021,8 hPa 0,0 l/m W 0,00 h 0 W/m 21,7 km/h (4 Bft)
02.04.2015 02:00 3,8 C 71 % 1020,6 hPa 0,0 l/m W-SW 0,00 h 0 W/m 23,7 km/h (4 Bft)
02.04.2015 03:00 3,7 C 74 % 1019,7 hPa 0,0 l/m W-SW 0,00 h 0 W/m 24,3 km/h (4 Bft)
02.04.2015 04:00 3,6 C 77 % 1018,6 hPa 0,0 l/m W-SW 0,00 h 0 W/m 27,8 km/h (4 Bft)
02.04.2015 05:00 3,2 C 81 % 1017,5 hPa 0,2 l/m W-SW 0,00 h 0 W/m 30,8 km/h (5 Bft)
02.04.2015 06:00 2,7 C 87 % 1016,6 hPa 0,6 l/m W-SW 0,00 h 0 W/m 26,7 km/h (4 Bft)
02.04.2015 07:00 3,0 C 87 % 1015,7 hPa 0,0 l/m W-SW 0,00 h 16 W/m 31,5 km/h (5 Bft)
02.04.2015 08:00 3,3 C 87 % 1015,1 hPa 0,0 l/m W-SW 0,00 h 44 W/m 38,2 km/h (5 Bft)
02.04.2015 09:00 3,3 C 88 % 1014,4 hPa 0,2 l/m W-SW 0,00 h 65 W/m 38,2 km/h (5 Bft)
02.04.2015 10:00 3,4 C 90 % 1013,9 hPa 0,6 l/m SW 0,00 h 58 W/m 43,0 km/h (6 Bft)
02.04.2015 11:00 3,6 C 92 % 1013,5 hPa 0,4 l/m SW 0,00 h 82 W/m 43,2 km/h (6 Bft)
02.04.2015 12:00 4,2 C 92 % 1013,0 hPa 0,2 l/m W-SW 0,00 h 116 W/m 40,0 km/h (6 Bft)
02.04.2015 13:00 5,1 C 91 % 1012,8 hPa 0,2 l/m W 0,00 h 174 W/m 37,4 km/h (5 Bft)
02.04.2015 14:00 6,2 C 88 % 1012,8 hPa 0,0 l/m W 0,00 h 195 W/m 39,8 km/h (6 Bft)
02.04.2015 15:00 6,7 C 87 % 1013,1 hPa 0,0 l/m W 0,00 h 151 W/m 40,4 km/h (6 Bft)
02.04.2015 16:00 5,3 C 90 % 1014,9 hPa 2,0 l/m NW 0,00 h 80 W/m 29,2 km/h (5 Bft)
02.04.2015 17:00 4,1 C 92 % 1016,3 hPa 0,4 l/m NW 0,00 h 56 W/m 21,0 km/h (4 Bft)
02.04.2015 18:00 4,0 C 92 % 1017,2 hPa 0,0 l/m W-NW 0,00 h 75 W/m 11,4 km/h (2 Bft)
02.04.2015 19:00 4,1 C 93 % 1018,2 hPa 0,0 l/m W-NW 0,00 h 10 W/m 2,3 km/h (1 Bft)
02.04.2015 20:00 3,5 C 92 % 1019,1 hPa 0,0 l/m W-NW 0,00 h 0 W/m 8,0 km/h (2 Bft)
02.04.2015 21:00 2,9 C 91 % 1020,2 hPa 0,0 l/m W-NW 0,00 h 0 W/m 8,4 km/h (2 Bft)
02.04.2015 22:00 2,6 C 92 % 1021,2 hPa 0,0 l/m W-NW 0,00 h 0 W/m 5,9 km/h (2 Bft)
02.04.2015 23:00 2,0 C 92 % 1021,7 hPa 0,0 l/m N 0,00 h 0 W/m 0,8 km/h (0 Bft)
03.04.2015 00:00 0,9 C 91 % 1022,2 hPa 0,0 l/m N 0,00 h 0 W/m 0,3 km/h (0 Bft)
03.04.2015 01:00 0,0 C 92 % 1022,3 hPa 0,0 l/m N 0,00 h 0 W/m 0,0 km/h (0 Bft)
03.04.2015 02:00 -0,4 C 93 % 1022,7 hPa 0,0 l/m N 0,00 h 0 W/m 0,0 km/h (0 Bft)
03.04.2015 03:00 -0,8 C 94 % 1022,7 hPa 0,0 l/m N 0,00 h 0 W/m 0,4 km/h (0 Bft)
03.04.2015 04:00 -1,1 C 95 % 1022,8 hPa 0,0 l/m N 0,00 h 0 W/m 0,3 km/h (0 Bft)
03.04.2015 05:00 -1,7 C 95 % 1022,8 hPa 0,0 l/m N 0,00 h 0 W/m 0,1 km/h (0 Bft)
03.04.2015 06:00 -2,0 C 95 % 1022,7 hPa 0,0 l/m N 0,00 h 0 W/m 0,3 km/h (0 Bft)
03.04.2015 07:00 -2,6 C 95 % 1023,0 hPa 0,0 l/m N 0,00 h 21 W/m 0,0 km/h (0 Bft)
03.04.2015 08:00 -1,9 C 97 % 1023,2 hPa 0,0 l/m N 0,00 h 68 W/m 0,1 km/h (0 Bft)
03.04.2015 09:00 0,4 C 98 % 1022,9 hPa 0,2 l/m W 0,17 h 204 W/m 6,0 km/h (2 Bft)
03.04.2015 10:00 2,6 C 98 % 1022,4 hPa 0,0 l/m S 0,92 h 518 W/m 10,2 km/h (2 Bft)
03.04.2015 11:00 5,4 C 87 % 1021,7 hPa 0,0 l/m S 0,67 h 519 W/m 11,7 km/h (2 Bft)
03.04.2015 12:00 6,5 C 72 % 1021,0 hPa 0,0 l/m SW 0,83 h 659 W/m 14,4 km/h (3 Bft)
03.04.2015 13:00 8,1 C 65 % 1019,9 hPa 0,0 l/m SW 0,92 h 750 W/m 12,3 km/h (3 Bft)
03.04.2015 14:00 9,2 C 57 % 1018,8 hPa 0,0 l/m SW 1,00 h 721 W/m 11,8 km/h (2 Bft)
03.04.2015 15:00 9,5 C 50 % 1017,7 hPa 0,0 l/m W-SW 0,83 h 427 W/m 13,3 km/h (3 Bft)
03.04.2015 16:00 9,6 C 39 % 1016,9 hPa 0,0 l/m W 0,42 h 294 W/m 9,4 km/h (2 Bft)
03.04.2015 17:00 9,5 C 37 % 1016,4 hPa 0,0 l/m W 0,08 h 135 W/m 10,6 km/h (2 Bft)
03.04.2015 18:00 8,8 C 44 % 1016,0 hPa 0,0 l/m W-SW 0,00 h 53 W/m 9,9 km/h (2 Bft)
03.04.2015 19:00 7,8 C 49 % 1016,0 hPa 0,0 l/m W 0,00 h 14 W/m 9,7 km/h (2 Bft)
03.04.2015 20:00 7,1 C 56 % 1016,0 hPa 0,0 l/m W 0,00 h 0 W/m 9,3 km/h (2 Bft)
03.04.2015 21:00 6,9 C 57 % 1016,0 hPa 0,0 l/m W 0,00 h 0 W/m 7,1 km/h (2 Bft)
03.04.2015 22:00 6,8 C 62 % 1015,7 hPa 0,0 l/m W 0,00 h 0 W/m 11,6 km/h (2 Bft)
03.04.2015 23:00 6,1 C 70 % 1015,5 hPa 0,0 l/m W-SW 0,00 h 0 W/m 8,7 km/h (2 Bft)
04.04.2015 00:00 5,3 C 79 % 1015,5 hPa 0,2 l/m W-SW 0,00 h 0 W/m 4,1 km/h (1 Bft)
04.04.2015 01:00 4,5 C 87 % 1015,0 hPa 0,0 l/m W-SW 0,00 h 0 W/m 1,7 km/h (1 Bft)
04.04.2015 02:00 3,7 C 90 % 1014,5 hPa 0,4 l/m N 0,00 h 0 W/m 1,1 km/h (0 Bft)
04.04.2015 03:00 3,3 C 92 % 1013,8 hPa 0,2 l/m N 0,00 h 0 W/m 0,0 km/h (0 Bft)
04.04.2015 04:00 3,1 C 93 % 1013,3 hPa 0,2 l/m N 0,00 h 0 W/m 0,0 km/h (0 Bft)
04.04.2015 05:00 3,0 C 94 % 1012,5 hPa 0,4 l/m N 0,00 h 0 W/m 0,3 km/h (0 Bft)
04.04.2015 06:00 2,8 C 94 % 1012,0 hPa 0,6 l/m N 0,00 h 0 W/m 0,0 km/h (0 Bft)
04.04.2015 07:00 2,6 C 95 % 1012,0 hPa 0,8 l/m N 0,00 h 10 W/m 0,4 km/h (0 Bft)
04.04.2015 08:00 2,3 C 95 % 1011,8 hPa 1,0 l/m N 0,00 h 32 W/m 1,1 km/h (0 Bft)
04.04.2015 09:00 2,2 C 95 % 1011,5 hPa 1,0 l/m W-SW 0,00 h 58 W/m 1,6 km/h (1 Bft)
04.04.2015 10:00 2,0 C 95 % 1011,5 hPa 1,2 l/m W-SW 0,00 h 71 W/m 2,9 km/h (1 Bft)
04.04.2015 11:00 1,9 C 95 % 1011,7 hPa 1,0 l/m W-SW 0,00 h 93 W/m 2,0 km/h (1 Bft)
04.04.2015 12:00 1,9 C 95 % 1011,4 hPa 1,2 l/m W-SW 0,00 h 125 W/m 4,5 km/h (1 Bft)
04.04.2015 13:00 2,5 C 96 % 1011,0 hPa 0,6 l/m O 0,00 h 85 W/m 8,4 km/h (2 Bft)
04.04.2015 14:00 2,9 C 96 % 1010,6 hPa 0,6 l/m O 0,00 h 135 W/m 9,3 km/h (2 Bft)
04.04.2015 15:00 3,0 C 95 % 1010,3 hPa 0,8 l/m O-NO 0,00 h 83 W/m 10,9 km/h (2 Bft)
04.04.2015 16:00 2,9 C 95 % 1010,3 hPa 0,8 l/m NO 0,00 h 69 W/m 10,2 km/h (2 Bft)
04.04.2015 17:00 3,0 C 95 % 1010,5 hPa 0,4 l/m NO 0,00 h 43 W/m 11,6 km/h (2 Bft)
04.04.2015 18:00 2,7 C 95 % 1011,1 hPa 0,4 l/m O-NO 0,00 h 32 W/m 19,0 km/h (3 Bft)
04.04.2015 19:00 2,2 C 95 % 1011,8 hPa 0,4 l/m NO 0,00 h 11 W/m 16,1 km/h (3 Bft)
04.04.2015 20:00 1,9 C 95 % 1012,5 hPa 0,2 l/m O-NO 0,00 h 0 W/m 17,4 km/h (3 Bft)
04.04.2015 21:00 1,5 C 95 % 1013,1 hPa 0,0 l/m NO 0,00 h 0 W/m 7,8 km/h (2 Bft)
04.04.2015 22:00 1,5 C 96 % 1013,7 hPa 0,0 l/m NO 0,00 h 0 W/m 5,9 km/h (2 Bft)
04.04.2015 23:00 1,6 C 96 % 1014,2 hPa 0,0 l/m NO 0,00 h 0 W/m 3,7 km/h (1 Bft)
05.04.2015 00:00 1,4 C 96 % 1014,4 hPa 0,0 l/m NO 0,00 h 0 W/m 5,2 km/h (1 Bft)
05.04.2015 01:00 1,2 C 96 % 1014,6 hPa 0,0 l/m N-NO 0,00 h 0 W/m 10,9 km/h (2 Bft)
05.04.2015 02:00 0,9 C 94 % 1014,9 hPa 0,0 l/m N-NO 0,00 h 0 W/m 14,8 km/h (3 Bft)
05.04.2015 03:00 0,8 C 88 % 1015,0 hPa 0,0 l/m NO 0,00 h 0 W/m 15,2 km/h (3 Bft)
05.04.2015 04:00 0,5 C 88 % 1015,4 hPa 0,0 l/m NO 0,00 h 0 W/m 11,7 km/h (2 Bft)
05.04.2015 05:00 0,2 C 88 % 1015,8 hPa 0,0 l/m NO 0,00 h 0 W/m 12,6 km/h (3 Bft)
05.04.2015 06:00 -0,0 C 87 % 1016,5 hPa 0,0 l/m NO 0,00 h 5 W/m 15,2 km/h (3 Bft)
05.04.2015 07:00 0,0 C 86 % 1017,3 hPa 0,0 l/m NO 0,00 h 36 W/m 14,5 km/h (3 Bft)
05.04.2015 08:00 0,5 C 85 % 1018,1 hPa 0,0 l/m NO 0,75 h 178 W/m 18,1 km/h (3 Bft)
05.04.2015 09:00 1,6 C 82 % 1018,8 hPa 0,0 l/m O-NO 1,00 h 348 W/m 18,8 km/h (3 Bft)
05.04.2015 10:00 2,7 C 78 % 1019,3 hPa 0,0 l/m NO 0,67 h 411 W/m 20,5 km/h (4 Bft)
05.04.2015 11:00 3,9 C 73 % 1019,7 hPa 0,0 l/m O 0,67 h 609 W/m 24,5 km/h (4 Bft)
05.04.2015 12:00 5,2 C 62 % 1019,8 hPa 0,0 l/m O-NO 0,50 h 574 W/m 24,0 km/h (4 Bft)
05.04.2015 13:00 5,5 C 56 % 1019,7 hPa 0,0 l/m O-NO 0,33 h 437 W/m 25,5 km/h (4 Bft)
05.04.2015 14:00 5,7 C 52 % 1019,8 hPa 0,0 l/m NO 0,50 h 505 W/m 25,9 km/h (4 Bft)
05.04.2015 15:00 6,5 C 48 % 1019,8 hPa 0,0 l/m O-NO 0,92 h 680 W/m 24,7 km/h (4 Bft)
05.04.2015 16:00 6,7 C 43 % 1019,9 hPa 0,0 l/m NO 0,75 h 516 W/m 24,5 km/h (4 Bft)
05.04.2015 17:00 6,5 C 44 % 1020,2 hPa 0,0 l/m O-NO 0,25 h 174 W/m 21,3 km/h (4 Bft)
05.04.2015 18:00 5,9 C 45 % 1020,7 hPa 0,0 l/m O-NO 0,92 h 244 W/m 17,6 km/h (3 Bft)
05.04.2015 19:00 4,9 C 48 % 1021,2 hPa 0,0 l/m N-NO 0,00 h 21 W/m 15,7 km/h (3 Bft)
05.04.2015 20:00 3,2 C 56 % 1021,8 hPa 0,0 l/m N-NO 0,00 h 0 W/m 7,0 km/h (2 Bft)
05.04.2015 21:00 1,7 C 64 % 1022,4 hPa 0,0 l/m N 0,00 h 0 W/m 2,4 km/h (1 Bft)
05.04.2015 22:00 0,8 C 69 % 1023,0 hPa 0,0 l/m N-NO 0,00 h 0 W/m 2,8 km/h (1 Bft)
05.04.2015 23:00 0,2 C 73 % 1023,0 hPa 0,0 l/m N-NO 0,00 h 0 W/m 4,7 km/h (1 Bft)
Min-Datum _ 03.04.15 03.04.15 30.03.15 - - - - 02.04.15
_ Min-Zeit 07:15 17:25 04:55 - - - - 19:10
Minimum _ -2,6 C 29 % 1000,1 hPa - - - - 0,0 km/h (0 Bft)
Max-Datum _ 31.03.15 03.04.15 01.04.15 30.03.15 - 01.04.15 01.04.15 31.03.15
_ Max-Zeit 11:45 09:55 22:35 07:35 - 14:10 13:35 13:10
Maximum _ 12,8 C 99 % 1023,4 hPa 4,0 l/m - 0,17 h 1020 W/m 77,2 km/h
W (9 Bft)
Durchschnitt _ 4,8 C 80 % 1014,2 hPa #38,2 l/m W #20:25 h 194 W/m 20,8 km/h (4 Bft)